createdAt,value
2022-11-20T00:01:30.996Z,46.20
2022-11-20T00:04:03.240Z,49.50
2022-11-20T00:06:35.254Z,45.90
2022-11-20T00:09:07.471Z,76.60
2022-11-20T00:11:39.436Z,56.50
2022-11-20T00:14:13.729Z,56.90
2022-11-20T00:16:45.647Z,51.40
2022-11-20T00:19:18.658Z,51.10
2022-11-20T00:21:52.485Z,52.30
2022-11-20T00:24:24.757Z,51.20
2022-11-20T00:26:56.745Z,46.00
2022-11-20T00:29:28.659Z,42.90
2022-11-20T00:32:00.596Z,43.00
2022-11-20T00:34:32.911Z,32.70
2022-11-20T00:37:04.781Z,32.70
2022-11-20T00:39:36.716Z,38.10
2022-11-20T00:42:09.243Z,37.80
2022-11-20T00:44:41.462Z,35.70
2022-11-20T00:47:13.477Z,35.30
2022-11-20T00:49:45.365Z,30.80
2022-11-20T00:52:17.302Z,36.30
2022-11-20T00:54:49.239Z,54.10
2022-11-20T00:57:21.484Z,38.10
2022-11-20T00:59:53.449Z,35.10
2022-11-20T01:02:25.770Z,32.90
2022-11-20T01:04:57.757Z,27.80
2022-11-20T01:07:29.767Z,30.10
2022-11-20T01:10:01.894Z,30.30
2022-11-20T01:12:33.878Z,32.10
2022-11-20T01:15:06.994Z,33.20
2022-11-20T01:17:38.857Z,27.10
2022-11-20T01:20:13.609Z,34.70
2022-11-20T01:22:45.858Z,30.60
2022-11-20T01:25:17.844Z,29.40
2022-11-20T01:27:49.781Z,26.30
2022-11-20T01:30:21.975Z,28.40
2022-11-20T01:32:54.093Z,25.40
2022-11-20T01:35:26.363Z,27.90
2022-11-20T01:37:58.249Z,29.80
2022-11-20T01:40:30.186Z,28.40
2022-11-20T01:43:23.383Z,30.60
2022-11-20T01:46:07.634Z,28.70
2022-11-20T01:48:45.904Z,30.10
2022-11-20T01:51:26.427Z,29.00
2022-11-20T01:54:02.227Z,30.60
2022-11-20T01:56:39.312Z,31.40
2022-11-20T01:59:14.403Z,28.70
2022-11-20T02:04:17.583Z,28.00
2022-11-20T02:06:53.336Z,27.70
2022-11-20T02:09:25.250Z,29.90
2022-11-20T02:11:58.209Z,27.40
2022-11-20T02:14:30.918Z,30.30
2022-11-20T02:17:02.854Z,733.00
2022-11-20T02:19:35.714Z,635.80
2022-11-20T02:22:11.723Z,634.40
2022-11-20T02:24:46.887Z,366.40
2022-11-20T02:27:20.895Z,81.50
2022-11-20T02:29:58.593Z,151.30
2022-11-20T02:32:32.452Z,48.20
2022-11-20T02:35:12.636Z,36.50
2022-11-20T02:37:44.929Z,38.70
2022-11-20T02:40:17.099Z,35.60
2022-11-20T02:42:48.958Z,36.00
2022-11-20T02:45:21.767Z,36.90
2022-11-20T02:47:54.041Z,36.10
2022-11-20T02:50:25.898Z,37.00
2022-11-20T02:52:57.940Z,36.90
2022-11-20T02:55:29.979Z,35.90
2022-11-20T02:58:01.943Z,230.70
2022-11-20T03:00:34.653Z,77.10
2022-11-20T03:03:07.020Z,59.90
2022-11-20T03:05:38.958Z,100.00
2022-11-20T03:08:10.997Z,37.40
2022-11-20T03:10:42.936Z,49.30
2022-11-20T03:13:14.874Z,46.80
2022-11-20T03:15:46.837Z,55.20
2022-11-20T03:18:18.750Z,54.20
2022-11-20T03:20:50.712Z,51.20
2022-11-20T03:23:23.037Z,42.40
2022-11-20T03:25:55.510Z,40.90
2022-11-20T03:28:27.422Z,47.80
2022-11-20T03:30:59.372Z,48.50
2022-11-20T03:33:32.936Z,46.20
2022-11-20T03:36:08.098Z,39.10
2022-11-20T03:38:40.959Z,37.70
2022-11-20T03:41:16.178Z,39.20
2022-11-20T03:43:52.771Z,38.90
2022-11-20T03:46:25.376Z,38.50
2022-11-20T03:48:57.901Z,38.70
2022-11-20T03:51:31.400Z,35.90
2022-11-20T03:54:05.233Z,37.50
2022-11-20T03:56:38.964Z,35.90
2022-11-20T03:59:13.744Z,41.00
2022-11-20T04:01:49.414Z,37.30
2022-11-20T04:04:21.842Z,37.30
2022-11-20T04:06:53.765Z,46.80
2022-11-20T04:09:25.693Z,44.40
2022-11-20T04:11:57.758Z,43.30
2022-11-20T04:14:29.773Z,43.90
2022-11-20T04:17:02.042Z,43.60
2022-11-20T04:19:33.980Z,36.50
2022-11-20T04:22:05.969Z,40.30
2022-11-20T04:24:37.934Z,39.50
2022-11-20T04:27:09.897Z,34.90
2022-11-20T04:29:41.809Z,38.70
2022-11-20T04:32:14.053Z,33.20
2022-11-20T04:34:45.965Z,37.70
2022-11-20T04:37:17.955Z,33.40
2022-11-20T04:39:49.944Z,41.90
2022-11-20T04:42:30.842Z,34.90
2022-11-20T04:45:03.133Z,37.50
2022-11-20T04:47:34.981Z,38.70
2022-11-20T04:50:08.306Z,40.10
2022-11-20T04:52:40.283Z,41.30
2022-11-20T04:55:12.809Z,39.60
2022-11-20T04:57:45.054Z,42.50
2022-11-20T05:00:19.105Z,39.30
2022-11-20T05:02:51.337Z,41.80
2022-11-20T05:05:23.376Z,35.00
2022-11-20T05:07:55.374Z,37.50
2022-11-20T05:10:28.073Z,36.60
2022-11-20T05:13:00.598Z,41.30
2022-11-20T05:15:32.590Z,44.70
2022-11-20T05:18:05.087Z,47.30
2022-11-20T05:20:37.359Z,42.40
2022-11-20T05:23:09.296Z,35.00
2022-11-20T05:25:41.537Z,42.00
2022-11-20T05:28:13.761Z,50.10
2022-11-20T05:30:45.674Z,47.60
2022-11-20T05:33:17.893Z,43.40
2022-11-20T05:35:50.706Z,42.50
2022-11-20T05:38:22.693Z,41.80
2022-11-20T05:40:55.061Z,44.00
2022-11-20T05:43:27.025Z,47.20
2022-11-20T05:45:59.015Z,59.40
2022-11-20T05:48:31.030Z,83.90
2022-11-20T05:51:04.324Z,153.00
2022-11-20T05:53:37.262Z,123.20
2022-11-20T05:56:12.612Z,60.20
2022-11-20T05:58:45.436Z,64.00
2022-11-20T06:01:19.295Z,55.90
2022-11-20T06:03:52.043Z,73.20
2022-11-20T06:06:24.478Z,60.30
2022-11-20T06:08:56.720Z,68.50
2022-11-20T06:11:29.043Z,79.60
2022-11-20T06:14:01.373Z,50.60
2022-11-20T06:16:34.046Z,58.20
2022-11-20T06:19:06.189Z,46.80
2022-11-20T06:21:38.999Z,57.90
2022-11-20T06:24:13.314Z,62.50
2022-11-20T06:26:45.572Z,58.60
2022-11-20T06:29:17.757Z,51.50
2022-11-20T06:31:49.620Z,53.00
2022-11-20T06:34:21.938Z,48.00
2022-11-20T06:36:53.869Z,36.60
2022-11-20T06:39:25.771Z,38.90
2022-11-20T06:41:59.168Z,44.60
2022-11-20T06:44:31.376Z,38.80
2022-11-20T06:47:03.292Z,42.30
2022-11-20T06:49:35.451Z,44.30
2022-11-20T06:52:07.523Z,43.50
2022-11-20T06:54:39.435Z,43.60
2022-11-20T06:57:11.425Z,42.70
2022-11-20T06:59:43.363Z,48.80
2022-11-20T07:02:16.120Z,41.30
2022-11-20T07:04:48.034Z,47.00
2022-11-20T07:07:20.190Z,45.50
2022-11-20T07:09:52.035Z,46.70
2022-11-20T07:12:23.973Z,45.20
2022-11-20T07:14:56.064Z,38.40
2022-11-20T07:17:28.054Z,37.70
2022-11-20T07:19:59.993Z,44.40
2022-11-20T07:22:32.108Z,41.80
2022-11-20T07:25:04.203Z,48.80
2022-11-20T07:27:36.394Z,67.90
2022-11-20T07:30:10.378Z,64.80
2022-11-20T07:32:42.369Z,76.80
2022-11-20T07:35:14.281Z,77.50
2022-11-20T07:37:46.834Z,64.40
2022-11-20T07:40:19.615Z,61.10
2022-11-20T07:42:57.216Z,122.10
2022-11-20T07:45:29.099Z,103.10
2022-11-20T07:48:01.113Z,138.60
2022-11-20T07:50:32.974Z,137.00
2022-11-20T07:53:06.984Z,117.00
2022-11-20T07:55:38.947Z,109.90
2022-11-20T07:58:10.943Z,55.00
2022-11-20T08:00:43.173Z,52.20
2022-11-20T08:03:18.111Z,53.00
2022-11-20T08:05:54.077Z,57.20
2022-11-20T08:08:26.013Z,48.10
2022-11-20T08:11:18.811Z,71.50
2022-11-20T08:14:08.547Z,69.30
2022-11-20T08:16:40.481Z,94.80
2022-11-20T08:19:12.545Z,72.20
2022-11-20T08:21:44.943Z,62.00
2022-11-20T08:24:16.935Z,70.80
2022-11-20T08:26:49.205Z,80.00
2022-11-20T08:29:21.301Z,53.80
2022-11-20T08:31:56.051Z,68.80
2022-11-20T08:34:43.194Z,69.00
2022-11-20T08:37:15.106Z,78.90
2022-11-20T08:39:47.966Z,57.00
2022-11-20T08:42:19.954Z,62.10
2022-11-20T08:44:51.814Z,64.10
2022-11-20T08:47:23.754Z,87.20
2022-11-20T08:49:55.588Z,83.30
2022-11-20T08:52:27.525Z,67.60
2022-11-20T08:54:59.795Z,68.80
2022-11-20T08:57:33.065Z,106.00
2022-11-20T09:00:07.142Z,79.70
2022-11-20T09:02:39.273Z,86.60
2022-11-20T09:05:11.825Z,79.30
2022-11-20T09:07:43.803Z,82.20
2022-11-20T09:10:24.144Z,73.60
2022-11-20T09:12:57.176Z,120.80
2022-11-20T09:15:29.795Z,94.50
2022-11-20T09:18:03.601Z,85.60
2022-11-20T09:20:35.507Z,95.10
2022-11-20T09:23:07.480Z,81.20
2022-11-20T09:25:39.742Z,86.00
2022-11-20T09:28:12.013Z,155.30
2022-11-20T09:30:44.282Z,155.60
2022-11-20T09:33:16.276Z,108.20
2022-11-20T09:35:48.236Z,97.50
2022-11-20T09:38:20.251Z,80.90
2022-11-20T09:40:59.207Z,69.30
2022-11-20T09:43:43.737Z,67.60
2022-11-20T09:46:22.991Z,74.90
2022-11-20T09:49:13.876Z,73.50
2022-11-20T09:51:52.855Z,59.80
2022-11-20T09:54:28.760Z,52.00
2022-11-20T09:57:05.667Z,67.60
2022-11-20T09:59:41.781Z,61.50
2022-11-20T10:02:26.259Z,50.70
2022-11-20T10:05:04.238Z,61.00
2022-11-20T10:07:42.462Z,93.10
2022-11-20T10:10:22.783Z,74.40
2022-11-20T10:13:09.106Z,57.80
2022-11-20T10:15:52.002Z,61.20
2022-11-20T10:18:38.582Z,60.80
2022-11-20T10:21:22.093Z,57.60
2022-11-20T10:24:11.463Z,72.40
2022-11-20T10:26:53.872Z,70.40
2022-11-20T10:29:31.468Z,63.20
2022-11-20T10:32:10.035Z,68.60
2022-11-20T10:34:51.061Z,68.00
2022-11-20T10:37:27.382Z,46.10
2022-11-20T10:40:04.100Z,44.40
2022-11-20T10:42:44.847Z,53.20
2022-11-20T10:45:23.670Z,65.30
2022-11-20T10:47:58.836Z,52.50
2022-11-20T10:50:32.054Z,55.70
2022-11-20T10:53:18.429Z,54.70
2022-11-20T10:55:57.252Z,78.60
2022-11-20T10:58:37.930Z,73.40
2022-11-20T11:01:18.142Z,93.40
2022-11-20T11:03:50.961Z,70.40
2022-11-20T11:06:30.425Z,116.10
2022-11-20T11:09:06.561Z,80.00
2022-11-20T11:11:40.394Z,61.20
2022-11-20T11:14:14.610Z,58.60
2022-11-20T11:16:55.457Z,50.60
2022-11-20T11:19:27.421Z,63.50
2022-11-20T11:21:59.922Z,73.10
2022-11-20T11:24:42.565Z,75.00
2022-11-20T11:27:19.141Z,65.20
2022-11-20T11:29:51.302Z,57.60
2022-11-20T11:32:24.132Z,53.60
2022-11-20T11:35:05.116Z,53.60
2022-11-20T11:37:40.682Z,56.60
2022-11-20T11:40:23.473Z,126.30
2022-11-20T11:43:00.127Z,59.80
2022-11-20T11:45:32.342Z,58.30
2022-11-20T11:48:05.815Z,51.70
2022-11-20T11:50:37.650Z,43.10
2022-11-20T11:53:15.424Z,47.70
2022-11-20T11:55:52.816Z,43.00
2022-11-20T11:58:42.035Z,41.50
2022-11-20T12:01:27.129Z,44.90
2022-11-20T12:04:06.852Z,45.80
2022-11-20T12:06:41.354Z,57.50
2022-11-20T12:09:14.694Z,77.30
2022-11-20T12:11:53.313Z,61.90
2022-11-20T12:14:34.421Z,57.90
2022-11-20T12:17:07.275Z,72.00
2022-11-20T12:19:39.162Z,62.90
2022-11-20T12:22:25.384Z,59.70
2022-11-20T12:25:04.425Z,55.50
2022-11-20T12:27:51.588Z,75.80
2022-11-20T12:30:25.763Z,145.50
2022-11-20T12:33:23.107Z,128.00
2022-11-20T12:36:08.664Z,323.30
2022-11-20T12:38:57.166Z,193.40
2022-11-20T12:42:03.358Z,64.20
2022-11-20T12:47:41.973Z,70.20
2022-11-20T12:50:25.071Z,75.40
2022-11-20T12:53:04.998Z,220.90
2022-11-20T12:55:52.962Z,128.10
2022-11-20T12:58:33.874Z,407.30
2022-11-20T13:01:35.896Z,147.10
2022-11-20T13:04:18.235Z,92.30
2022-11-20T13:06:51.409Z,73.30
2022-11-20T13:09:25.257Z,72.50
2022-11-20T13:12:08.664Z,66.60
2022-11-20T13:14:45.544Z,77.30
2022-11-20T13:17:22.831Z,74.70
2022-11-20T13:19:57.381Z,72.90
2022-11-20T13:22:31.349Z,76.30
2022-11-20T13:25:03.253Z,68.80
2022-11-20T13:27:36.409Z,75.60
2022-11-20T13:30:19.792Z,72.00
2022-11-20T13:33:00.877Z,90.10
2022-11-20T13:35:34.962Z,87.30
2022-11-20T13:38:10.674Z,75.60
2022-11-20T13:40:54.998Z,81.00
2022-11-20T13:43:37.132Z,70.50
2022-11-20T13:46:11.416Z,72.70
2022-11-20T13:48:45.633Z,65.00
2022-11-20T13:51:33.980Z,417.20
2022-11-20T13:54:25.103Z,83.20
2022-11-20T13:57:12.288Z,70.20
2022-11-20T13:59:59.166Z,62.10
2022-11-20T14:02:32.524Z,67.10
2022-11-20T14:05:06.688Z,59.60
2022-11-20T14:07:43.024Z,59.40
2022-11-20T14:10:31.053Z,63.50
2022-11-20T14:13:17.904Z,63.80
2022-11-20T14:15:49.791Z,61.20
2022-11-20T14:18:24.519Z,54.70
2022-11-20T14:20:56.508Z,68.10
2022-11-20T14:23:30.742Z,66.20
2022-11-20T14:26:02.715Z,60.10
2022-11-20T14:28:34.859Z,52.20
2022-11-20T14:31:18.648Z,50.80
2022-11-20T14:33:50.894Z,50.30
2022-11-20T14:36:25.416Z,52.70
2022-11-20T14:38:57.430Z,50.00
2022-11-20T14:41:30.188Z,64.70
2022-11-20T14:44:03.737Z,52.10
2022-11-20T14:46:37.339Z,55.70
2022-11-20T14:49:12.452Z,67.60
2022-11-20T14:54:18.690Z,68.70
2022-11-20T14:56:59.661Z,140.60
2022-11-20T14:59:33.185Z,107.50
2022-11-20T15:02:08.026Z,173.20
2022-11-20T15:04:49.859Z,87.00
2022-11-20T15:07:30.698Z,62.10
2022-11-20T15:10:12.386Z,59.40
2022-11-20T15:12:51.144Z,60.20
2022-11-20T15:15:27.229Z,52.20
2022-11-20T15:17:59.579Z,57.90
2022-11-20T15:20:34.612Z,59.10
2022-11-20T15:25:44.301Z,42.40
2022-11-20T15:28:21.896Z,60.70
2022-11-20T15:30:53.884Z,142.80
2022-11-20T15:33:26.059Z,138.00
2022-11-20T15:35:58.437Z,99.90
2022-11-20T15:38:30.317Z,68.50
2022-11-20T15:41:02.505Z,114.70
2022-11-20T15:43:34.648Z,62.00
2022-11-20T15:46:11.361Z,49.80
2022-11-20T15:48:48.158Z,46.00
2022-11-20T15:51:27.229Z,57.90
2022-11-20T15:54:00.321Z,66.20
2022-11-20T15:56:34.253Z,44.40
2022-11-20T15:59:06.415Z,76.50
2022-11-20T16:01:38.610Z,66.90
2022-11-20T16:04:14.317Z,56.90
2022-11-20T16:06:46.565Z,50.00
2022-11-20T16:09:18.652Z,55.70
2022-11-20T16:11:50.591Z,69.90
2022-11-20T16:14:39.936Z,64.70
2022-11-20T16:17:12.030Z,56.30
2022-11-20T16:19:43.942Z,52.50
2022-11-20T16:22:15.853Z,42.80
2022-11-20T16:24:48.411Z,69.20
2022-11-20T16:27:20.395Z,102.80
2022-11-20T16:29:52.459Z,64.30
2022-11-20T16:32:24.425Z,85.70
2022-11-20T16:34:56.397Z,125.00
2022-11-20T16:37:28.354Z,53.70
2022-11-20T16:40:00.267Z,114.70
2022-11-20T16:42:35.119Z,68.00
2022-11-20T16:45:08.875Z,47.60
2022-11-20T16:47:40.863Z,80.40
2022-11-20T16:50:15.058Z,53.80
2022-11-20T16:52:46.994Z,50.80
2022-11-20T16:55:19.058Z,51.00
2022-11-20T16:57:51.047Z,127.70
2022-11-20T17:00:23.010Z,72.90
2022-11-20T17:02:54.922Z,54.50
2022-11-20T17:05:26.812Z,94.40
2022-11-20T17:07:58.747Z,138.40
2022-11-20T17:10:30.711Z,84.30
2022-11-20T17:13:02.776Z,52.50
2022-11-20T17:15:35.302Z,151.60
2022-11-20T17:18:07.368Z,96.10
2022-11-20T17:20:39.309Z,127.70
2022-11-20T17:23:11.609Z,98.40
2022-11-20T17:25:43.488Z,85.80
2022-11-20T17:28:15.451Z,86.90
2022-11-20T17:30:47.414Z,84.00
2022-11-20T17:33:19.379Z,78.40
2022-11-20T17:35:51.343Z,137.30
2022-11-20T17:38:23.485Z,129.40
2022-11-20T17:40:55.527Z,130.00
2022-11-20T17:43:30.373Z,93.10
2022-11-20T17:46:09.131Z,87.60
2022-11-20T17:48:42.578Z,106.20
2022-11-20T17:51:16.717Z,80.40
2022-11-20T17:53:50.832Z,85.00
2022-11-20T17:56:40.381Z,88.10
2022-11-20T17:59:14.265Z,84.40
2022-11-20T18:01:46.419Z,74.80
2022-11-20T18:04:18.985Z,66.70
2022-11-20T18:06:50.898Z,99.90
2022-11-20T18:09:23.425Z,122.70
2022-11-20T18:11:55.489Z,93.60
2022-11-20T18:14:29.613Z,77.60
2022-11-20T18:17:03.678Z,93.10
2022-11-20T18:19:41.207Z,79.00
2022-11-20T18:22:18.423Z,86.00
2022-11-20T18:24:50.569Z,109.30
2022-11-20T18:27:24.117Z,130.40
2022-11-20T18:29:56.642Z,74.90
2022-11-20T18:32:28.912Z,144.10
2022-11-20T18:35:01.388Z,91.50
2022-11-20T18:37:33.812Z,110.30
2022-11-20T18:40:06.676Z,147.40
2022-11-20T18:42:57.119Z,129.50
2022-11-20T18:45:30.474Z,105.90
2022-11-20T18:48:02.407Z,118.10
2022-11-20T18:50:34.648Z,118.00
2022-11-20T18:53:06.558Z,100.70
2022-11-20T18:55:38.522Z,116.50
2022-11-20T18:58:10.574Z,198.70
2022-11-20T19:00:42.500Z,129.30
2022-11-20T19:03:14.573Z,144.10
2022-11-20T19:05:46.479Z,171.20
2022-11-20T19:08:18.369Z,98.20
2022-11-20T19:10:50.328Z,130.70
2022-11-20T19:13:22.576Z,148.80
2022-11-20T19:15:54.511Z,187.20
2022-11-20T19:18:26.428Z,263.10
2022-11-20T19:20:58.945Z,214.30
2022-11-20T19:23:30.896Z,162.10
2022-11-20T19:26:03.215Z,179.70
2022-11-20T19:28:35.788Z,175.60
2022-11-20T19:31:09.287Z,191.00
2022-11-20T19:33:41.174Z,113.20
2022-11-20T19:36:15.287Z,100.90
2022-11-20T19:38:48.813Z,120.00
2022-11-20T19:41:29.076Z,140.90
2022-11-20T19:44:02.501Z,178.60
2022-11-20T19:46:36.352Z,162.20
2022-11-20T19:49:10.353Z,160.00
2022-11-20T19:51:47.881Z,156.70
2022-11-20T19:54:19.896Z,147.60
2022-11-20T19:56:51.836Z,149.30
2022-11-20T19:59:24.260Z,142.40
2022-11-20T20:01:56.753Z,144.70
2022-11-20T20:04:28.695Z,142.60
2022-11-20T20:07:04.040Z,127.70
2022-11-20T20:09:36.057Z,135.90
2022-11-20T20:12:08.926Z,177.40
2022-11-20T20:14:40.897Z,142.30
2022-11-20T20:17:12.943Z,135.30
2022-11-20T20:19:44.931Z,163.50
2022-11-20T20:22:16.920Z,178.90
2022-11-20T20:24:48.961Z,192.30
2022-11-20T20:27:20.877Z,206.20
2022-11-20T20:29:52.818Z,193.30
2022-11-20T20:32:24.952Z,150.50
2022-11-20T20:34:56.942Z,139.10
2022-11-20T20:37:28.931Z,135.20
2022-11-20T20:40:01.127Z,106.00
2022-11-20T20:42:33.780Z,94.90
2022-11-20T20:45:11.092Z,98.60
2022-11-20T20:47:43.779Z,115.70
2022-11-20T20:50:15.949Z,183.70
2022-11-20T20:52:47.983Z,240.60
2022-11-20T20:55:20.036Z,214.10
2022-11-20T20:57:53.732Z,143.00
2022-11-20T21:00:25.639Z,259.50
2022-11-20T21:02:57.576Z,223.20
2022-11-20T21:05:29.565Z,159.30
2022-11-20T21:08:19.090Z,112.20
2022-11-20T21:10:51.030Z,101.30
2022-11-20T21:13:24.531Z,72.10
2022-11-20T21:15:56.702Z,99.50
2022-11-20T21:18:28.760Z,96.40
2022-11-20T21:21:26.874Z,106.30
2022-11-20T21:23:58.802Z,83.70
2022-11-20T21:26:30.994Z,91.40
2022-11-20T21:29:03.059Z,83.70
2022-11-20T21:31:34.998Z,275.80
2022-11-20T21:34:08.374Z,115.50
2022-11-20T21:36:40.435Z,307.40
2022-11-20T21:39:14.172Z,168.90
2022-11-20T21:41:46.336Z,115.90
2022-11-20T21:44:36.100Z,127.20
2022-11-20T21:47:08.104Z,124.90
2022-11-20T21:49:41.249Z,112.20
2022-11-20T21:52:13.342Z,106.20
2022-11-20T21:54:45.301Z,84.90
2022-11-20T21:57:17.238Z,93.20
2022-11-20T21:59:49.227Z,98.90
2022-11-20T22:02:21.165Z,96.40
2022-11-20T22:04:53.262Z,90.50
2022-11-20T22:07:25.317Z,146.80
2022-11-20T22:09:57.233Z,113.40
2022-11-20T22:12:29.358Z,135.30
2022-11-20T22:15:01.292Z,121.60
2022-11-20T22:17:50.689Z,188.30
2022-11-20T22:20:22.726Z,117.60
2022-11-20T22:22:54.669Z,116.60
2022-11-20T22:25:26.566Z,103.90
2022-11-20T22:27:58.565Z,103.40
2022-11-20T22:30:30.888Z,175.20
2022-11-20T22:33:02.852Z,162.30
2022-11-20T22:35:35.019Z,134.20
2022-11-20T22:38:07.806Z,80.20
2022-11-20T22:40:40.225Z,100.70
2022-11-20T22:43:12.138Z,184.40
2022-11-20T22:45:45.803Z,108.20
2022-11-20T22:48:18.413Z,82.50
2022-11-20T22:50:50.846Z,76.10
2022-11-20T22:53:23.140Z,77.40
2022-11-20T22:55:55.066Z,76.20
2022-11-20T22:58:28.297Z,67.90
2022-11-20T23:01:09.055Z,70.30
2022-11-20T23:03:42.771Z,83.20
2022-11-20T23:06:16.010Z,99.10
2022-11-20T23:08:49.258Z,90.20
2022-11-20T23:11:23.634Z,81.30
2022-11-20T23:13:58.100Z,83.20
2022-11-20T23:16:32.803Z,85.50
2022-11-20T23:19:06.711Z,90.40
2022-11-20T23:21:40.566Z,83.90
2022-11-20T23:24:13.298Z,87.80
2022-11-20T23:26:48.030Z,177.00
2022-11-20T23:29:20.076Z,107.40
2022-11-20T23:31:52.108Z,96.40
2022-11-20T23:34:24.096Z,93.70
2022-11-20T23:36:56.291Z,97.90
2022-11-20T23:39:28.203Z,113.00
2022-11-20T23:42:00.705Z,103.60
2022-11-20T23:44:32.643Z,82.10
2022-11-20T23:47:04.632Z,86.60
2022-11-20T23:49:36.525Z,84.70
2022-11-20T23:52:08.661Z,114.50
2022-11-20T23:54:40.599Z,109.80
2022-11-20T23:57:12.896Z,80.10
2022-11-20T23:59:44.885Z,76.00
